Time;durP1;ratioP1;P1;durP2;ratioP2;P2;SDS_P1;SDS_P2;PMS_P1;PMS_P2;Temp;Humidity;BMP_temperature;BMP_pressure;BME280_temperature;BME280_humidity;BME280_pressure;Samples;Min_cycle;Max_cycle;Signal;HPM_P1;HPM_P2
2021/09/09 00:07:11;;;;;;;30.40;22.70;;;;;;;16.41;67.82;100568.77;109566;1236;138226;-73
2021/09/09 00:14:35;;;;;;;30.40;22.70;;;;;;;16.38;67.97;100567.87;111478;1220;636126;-75
2021/09/09 00:26:45;;;;;;;30.50;23.00;;;;;;;16.26;68.16;100563.19;111428;1220;636038;-74
2021/09/09 00:30:55;;;;;;;31.60;23.30;;;;;;;16.22;68.18;100563.78;112207;1202;137353;-74
2021/09/09 00:35:03;;;;;;;33.00;25.70;;;;;;;16.21;68.31;100564.32;111976;1208;137359;-75
2021/09/09 00:51:50;;;;;;;30.90;22.30;;;;;;;16.04;68.86;100564.88;110481;1228;93974;-74
2021/09/09 01:00:15;;;;;;;;;;;;;;;;;;;;;
2021/09/09 01:04:25;;;;;;;30.40;24.70;;;;;;;15.95;68.86;100565.98;112194;1209;94031;-74
2021/09/09 01:12:43;;;;;;;28.50;22.40;;;;;;;15.85;69.24;100568.45;111852;1217;137043;-74
2021/09/09 01:16:52;;;;;;;34.60;23.30;;;;;;;15.76;69.20;100566.05;111572;1221;107297;-75
2021/09/09 01:29:38;;;;;;;31.40;23.20;;;;;;;15.67;69.60;100562.09;110409;1224;94092;-74
2021/09/09 01:41:49;;;;;;;32.30;24.50;;;;;;;15.60;69.83;100560.83;110230;1232;109305;-75
2021/09/09 01:50:00;;;;;;;33.70;24.30;;;;;;;15.47;70.16;100560.21;110335;1226;137989;-74
2021/09/09 02:05:37;;;;;;;;;;;;;;;;;;;;;
2021/09/09 02:13:34;;;;;;;31.30;25.70;;;;;;;15.30;70.60;100554.40;111135;1223;635941;-74
2021/09/09 02:26:00;;;;;;;33.60;26.30;;;;;;;15.11;71.27;100548.23;111497;1215;137580;-74
2021/09/09 02:30:09;;;;;;;34.20;26.10;;;;;;;15.05;71.42;100549.04;111630;1214;107204;-74
2021/09/09 02:34:44;;;;;;;33.10;25.90;;;;;;;15.00;71.69;100545.96;111292;1216;137495;-74
2021/09/09 02:51:07;;;;;;;34.70;26.40;;;;;;;14.92;72.28;100533.20;109929;1234;137299;-75
2021/09/09 02:59:04;;;;;;;35.70;26.40;;;;;;;14.86;72.12;100531.36;111405;1219;636192;-75
2021/09/09 03:02:50;;;;;;;34.80;26.10;;;;;;;14.82;72.37;100535.41;111977;1206;136096;-74
2021/09/09 03:06:58;;;;;;;34.00;26.10;;;;;;;14.77;72.52;100532.63;111965;1218;94037;-74
2021/09/09 03:11:08;;;;;;;37.30;27.20;;;;;;;14.75;72.76;100534.15;111916;1211;108265;-74
2021/09/09 03:15:21;;;;;;;;;;;;;;;;;;;;;
2021/09/09 03:39:33;;;;;;;33.10;26.00;;;;;;;14.46;73.80;100534.20;111408;1216;635740;-76
2021/09/09 03:43:42;;;;;;;37.50;26.70;;;;;;;14.41;73.88;100532.12;112173;1216;93962;-76
2021/09/09 03:47:52;;;;;;;30.00;24.80;;;;;;;14.37;73.72;100533.17;111943;1209;137083;-74
2021/09/09 03:55:48;;;;;;;34.60;23.90;;;;;;;14.31;73.98;100526.91;111374;1219;106671;-76
2021/09/09 03:59:59;;;;;;;32.50;23.80;;;;;;;14.30;73.93;100524.52;111195;1214;137716;-75
2021/09/09 04:04:20;;;;;;;31.20;24.80;;;;;;;14.29;73.96;100522.13;111226;1219;137787;-75
2021/09/09 04:08:25;;;;;;;31.60;23.50;;;;;;;14.27;73.89;100522.41;110739;1228;93927;-75
2021/09/09 04:16:40;;;;;;;30.20;23.50;;;;;;;14.28;73.92;100524.09;109886;1232;137292;-74
2021/09/09 04:36:35;;;;;;;;;;;;;;;;;;;;;
2021/09/09 04:49:10;;;;;;;32.60;24.00;;;;;;;18.79;64.32;100524.94;109725;1232;136906;-75
2021/09/09 04:56:41;;;;;;;34.30;23.10;;;;;;;20.54;60.85;100515.77;111551;1221;635922;-74
2021/09/09 05:00:50;;;;;;;30.40;21.60;;;;;;;21.49;58.47;100519.46;112125;1209;136733;-74
2021/09/09 05:04:26;;;;;;;27.40;22.00;;;;;;;22.37;56.63;100516.20;111998;1210;136947;-75
2021/09/09 05:08:09;;;;;;;;;;;;;;;;;;;;;
2021/09/09 05:11:41;;;;;;;;;;;;;;;;;;;;;
2021/09/09 05:15:32;;;;;;;26.40;20.60;;;;;;;24.37;50.37;100498.59;111963;1218;107581;-74
2021/09/09 05:19:33;;;;;;;27.60;21.30;;;;;;;24.82;48.85;100496.61;112061;1216;93892;-74
2021/09/09 05:23:15;;;;;;;25.40;20.70;;;;;;;25.31;47.44;100490.99;111472;1215;136864;-74
2021/09/09 05:26:32;;;;;;;25.20;20.20;;;;;;;25.83;46.34;100483.78;111605;1215;108349;-75
2021/09/09 05:30:25;;;;;;;23.10;19.00;;;;;;;26.35;44.80;100484.25;111433;1216;137292;-75
2021/09/09 05:34:06;;;;;;;23.50;18.30;;;;;;;26.94;43.67;100488.58;111716;1218;109244;-75
2021/09/09 05:40:57;;;;;;;;;;;;;;;28.33;41.76;100470.70;111539;1220;137374;-73
2021/09/09 05:44:25;;;;;;;20.40;17.00;;;;;;;28.91;40.55;100469.73;111716;1220;109020;-74
2021/09/09 05:47:28;;;;;;;23.60;16.10;;;;;;;29.46;39.34;100470.63;111773;1216;137524;-74
2021/09/09 05:50:19;;;;;;;27.20;17.50;;;;;;;29.98;38.09;100466.17;112047;1208;107717;-74
2021/09/09 05:53:20;;;;;;;19.80;16.30;;;;;;;30.30;36.32;100459.27;111767;1211;137392;-74
2021/09/09 05:56:31;;;;;;;17.00;15.00;;;;;;;30.81;35.99;100462.84;112039;1216;94862;-74
2021/09/09 05:59:37;;;;;;;21.10;16.00;;;;;;;31.25;34.78;100463.89;112013;1211;136985;-74
2021/09/09 06:02:28;;;;;;;20.40;14.40;;;;;;;31.49;34.17;100463.30;112218;1203;107243;-74
2021/09/09 06:05:53;;;;;;;20.20;15.00;;;;;;;31.99;34.14;100458.38;112101;1206;137139;-75
2021/09/09 06:09:21;;;;;;;19.60;15.30;;;;;;;32.38;32.04;100454.49;112290;1204;96998;-75
2021/09/09 06:13:19;;;;;;;19.90;15.20;;;;;;;32.56;31.57;100454.70;112073;1214;137749;-74
2021/09/09 06:17:01;;;;;;;23.10;14.30;;;;;;;32.99;31.47;100454.88;112132;1214;101063;-72
2021/09/09 06:20:19;;;;;;;16.20;13.60;;;;;;;33.46;30.55;100457.27;112341;1208;107179;-73
2021/09/09 06:23:32;;;;;;;;;;;;;;;;;;;;;
2021/09/09 06:26:48;;;;;;;17.40;13.20;;;;;;;34.18;29.64;100454.24;112301;1201;94805;-73
2021/09/09 06:30:15;;;;;;;20.00;13.90;;;;;;;34.60;29.24;100455.49;112285;1203;137227;-74
2021/09/09 06:33:22;;;;;;;18.60;13.20;;;;;;;35.17;28.47;100459.95;112578;1198;100793;-74
2021/09/09 06:36:29;;;;;;;17.90;12.90;;;;;;;35.53;27.87;100460.80;112504;1205;137309;-73
2021/09/09 06:39:20;;;;;;;15.30;12.40;;;;;;;35.92;27.06;100450.58;112657;1204;100024;-73
2021/09/09 06:42:17;;;;;;;19.80;12.50;;;;;;;36.15;26.47;100450.73;112598;1197;137275;-74
2021/09/09 06:45:41;;;;;;;18.10;11.70;;;;;;;36.56;26.15;100451.73;112816;1204;94801;-74
2021/09/09 06:48:36;;;;;;;20.30;12.60;;;;;;;36.89;25.73;100451.77;112211;1208;137031;-76
2021/09/09 06:51:27;;;;;;;15.40;12.50;;;;;;;37.30;25.16;100453.66;112316;1202;98517;-75
2021/09/09 06:54:17;;;;;;;19.40;13.00;;;;;;;37.50;24.31;100460.91;112206;1208;136952;-74
2021/09/09 06:57:22;;;;;;;18.00;12.90;;;;;;;37.39;23.35;100461.81;112304;1208;94978;-74
2021/09/09 07:00:23;;;;;;;17.70;12.70;;;;;;;37.20;23.72;100458.68;112237;1202;137021;-73
2021/09/09 07:03:24;;;;;;;;;;;;;;;;;;;;;
2021/09/09 07:06:16;;;;;;;16.10;12.90;;;;;;;37.24;23.23;100454.61;112260;1200;137416;-74
2021/09/09 07:09:30;;;;;;;20.40;13.40;;;;;;;37.12;23.44;100456.63;112210;1211;99910;-73
2021/09/09 07:12:53;;;;;;;18.30;13.00;;;;;;;37.14;23.67;100456.99;112092;1211;137235;-74
2021/09/09 07:16:11;;;;;;;17.70;12.80;;;;;;;37.30;23.52;100457.60;112190;1205;94854;-74
2021/09/09 07:19:11;;;;;;;18.30;11.60;;;;;;;37.33;23.34;100460.00;111943;1214;137257;-74
2021/09/09 07:22:10;;;;;;;14.20;10.70;;;;;;;37.47;23.63;100458.83;112099;1213;97617;-74
2021/09/09 07:25:26;;;;;;;19.30;11.50;;;;;;;37.58;23.43;100455.19;111968;1208;137067;-75
2021/09/09 07:28:43;;;;;;;15.70;10.90;;;;;;;37.60;22.86;100455.02;112219;1210;94875;-74
2021/09/09 07:31:34;;;;;;;24.60;12.10;;;;;;;37.59;22.91;100457.02;112140;1210;136844;-73
2021/09/09 07:34:25;;;;;;;29.90;13.10;;;;;;;37.64;23.00;100456.94;112249;1202;100006;-74
2021/09/09 07:37:30;;;;;;;19.50;11.10;;;;;;;37.44;22.55;100464.66;112311;1206;137191;-74
2021/09/09 07:40:39;;;;;;;18.30;10.50;;;;;;;37.14;22.85;100462.94;112515;1204;100046;-75
2021/09/09 07:43:28;;;;;;;17.40;11.90;;;;;;;36.85;22.81;100462.11;112474;1204;137397;-75
2021/09/09 07:46:35;;;;;;;;;;;;;;;;;;;;;
2021/09/09 07:49:44;;;;;;;19.40;10.30;;;;;;;36.47;23.32;100461.73;112659;1203;137674;-74
2021/09/09 07:52:35;;;;;;;17.60;10.30;;;;;;;36.45;23.24;100457.96;112776;1203;107327;-74
2021/09/09 07:55:43;;;;;;;22.40;10.30;;;;;;;36.40;22.99;100455.96;112651;1197;137262;-74
2021/09/09 07:58:34;;;;;;;13.70;9.20;;;;;;;36.09;23.15;100454.24;112775;1204;94863;-74
2021/09/09 08:01:46;;;;;;;;;;;;;;;;;;;;;
2021/09/09 08:04:54;;;;;;;12.90;9.60;;;;;;;36.16;23.76;100456.98;112678;1204;100814;-75
2021/09/09 08:08:28;;;;;;;15.70;10.40;;;;;;;36.09;23.86;100453.14;112834;1204;97486;-77
2021/09/09 08:11:18;;;;;;;15.80;9.70;;;;;;;36.23;23.77;100456.44;112770;1196;98916;-74
2021/09/09 08:14:16;;;;;;;15.20;9.70;;;;;;;36.36;23.34;100461.94;112636;1204;136854;-75
2021/09/09 08:17:26;;;;;;;13.00;8.90;;;;;;;36.54;23.27;100464.54;112749;1204;94937;-74
2021/09/09 08:20:15;;;;;;;10.20;8.00;;;;;;;36.67;22.87;100461.79;112659;1204;137014;-76
2021/09/09 08:23:03;;;;;;;14.30;7.80;;;;;;;36.32;22.68;100463.93;112821;1196;97487;-75
2021/09/09 08:25:56;;;;;;;11.00;7.90;;;;;;;36.16;22.66;100465.52;112640;1196;137022;-74
2021/09/09 08:28:58;;;;;;;13.00;8.40;;;;;;;35.95;22.80;100461.61;112707;1204;94811;-75
2021/09/09 08:31:57;;;;;;;16.80;8.10;;;;;;;36.02;22.68;100464.60;112696;1204;136942;-74
2021/09/09 08:35:14;;;;;;;14.50;8.10;;;;;;;35.82;22.51;100468.06;112815;1204;109350;-74
2021/09/09 08:38:23;;;;;;;16.40;7.60;;;;;;;35.61;22.82;100462.13;112678;1204;137013;-74
2021/09/09 08:41:47;;;;;;;15.40;8.30;;;;;;;35.69;23.11;100462.04;112769;1204;98974;-74
2021/09/09 08:44:45;;;;;;;13.80;8.40;;;;;;;35.93;23.44;100459.93;112636;1204;137637;-74
2021/09/09 08:48:03;;;;;;;15.00;8.00;;;;;;;36.14;23.33;100459.66;112787;1197;94949;-74
2021/09/09 08:50:55;;;;;;;13.70;6.80;;;;;;;36.44;22.72;100457.51;112598;1204;136779;-74
2021/09/09 08:53:44;;;;;;;9.90;7.50;;;;;;;36.40;22.27;100456.17;112733;1196;98551;-74
2021/09/09 08:56:39;;;;;;;16.10;7.70;;;;;;;36.34;22.44;100451.34;112547;1204;136846;-74
2021/09/09 08:59:30;;;;;;;10.90;7.20;;;;;;;36.19;21.79;100455.33;112698;1204;95301;-74
2021/09/09 09:02:48;;;;;;;11.80;7.10;;;;;;;35.74;21.95;100455.98;112646;1204;137023;-74
2021/09/09 09:05:57;;;;;;;11.50;7.50;;;;;;;35.56;22.53;100449.92;112738;1204;101142;-77
2021/09/09 09:09:14;;;;;;;10.00;6.90;;;;;;;35.25;22.60;100450.84;112655;1196;137032;-74
2021/09/09 09:12:36;;;;;;;10.10;7.00;;;;;;;34.95;22.06;100450.16;112774;1204;99935;-74
2021/09/09 09:16:05;;;;;;;11.30;6.60;;;;;;;34.72;22.79;100442.17;112759;1197;95572;-74
2021/09/09 09:19:31;;;;;;;11.70;7.10;;;;;;;34.83;22.96;100438.98;112646;1204;137108;-75
2021/09/09 09:22:53;;;;;;;8.50;6.80;;;;;;;34.79;23.11;100436.36;112706;1196;99871;-75
2021/09/09 09:26:26;;;;;;;12.80;7.00;;;;;;;34.78;23.46;100433.02;112741;1204;137413;-75
2021/09/09 09:29:24;;;;;;;10.40;6.00;;;;;;;34.94;23.40;100429.05;112752;1196;99975;-75
2021/09/09 09:32:18;;;;;;;12.60;7.30;;;;;;;35.02;23.01;100432.09;112680;1204;137662;-74
2021/09/09 09:36:05;;;;;;;8.10;5.90;;;;;;;35.02;23.07;100430.59;112819;1196;94847;-76
2021/09/09 09:39:07;;;;;;;;;;;;;;;;;;;;;
2021/09/09 09:42:33;;;;;;;7.60;6.80;;;;;;;34.90;22.58;100428.27;112755;1196;96201;-75
2021/09/09 09:45:30;;;;;;;8.70;6.80;;;;;;;34.99;22.77;100424.79;112688;1203;137234;-74
2021/09/09 09:48:33;;;;;;;7.40;5.90;;;;;;;35.03;22.97;100419.12;112624;1204;95475;-74
2021/09/09 09:52:41;;;;;;;11.50;6.30;;;;;;;34.99;22.45;100422.30;112655;1197;136689;-74
2021/09/09 09:56:10;;;;;;;13.30;6.90;;;;;;;34.62;22.50;100420.54;112381;1200;137696;-74
2021/09/09 09:59:06;;;;;;;7.70;6.70;;;;;;;34.19;22.68;100420.02;112443;1200;96377;-74
2021/09/09 10:02:27;;;;;;;11.30;6.40;;;;;;;33.93;22.98;100410.75;112358;1200;136698;-74
2021/09/09 10:05:49;;;;;;;9.50;6.90;;;;;;;33.63;23.31;100410.29;112468;1200;94832;-75
2021/09/09 10:09:17;;;;;;;9.70;7.00;;;;;;;33.31;23.78;100410.31;112358;1206;136776;-74
2021/09/09 10:12:31;;;;;;;;;;;;;;;;;;;;;
2021/09/09 10:16:15;;;;;;;9.80;6.60;;;;;;;32.12;25.18;100398.86;112191;1203;137115;-74
2021/09/09 10:20:04;;;;;;;8.80;6.50;;;;;;;32.03;25.51;100398.15;111829;1210;137384;-75
2021/09/09 10:23:23;;;;;;;12.10;7.10;;;;;;;31.93;25.48;100406.63;111676;1213;96393;-74
2021/09/09 10:27:06;;;;;;;;;;;;;;;;;;;;;
2021/09/09 10:30:56;;;;;;;11.80;7.10;;;;;;;31.43;26.44;100396.48;111523;1221;110811;-72
2021/09/09 10:34:39;;;;;;;11.80;7.90;;;;;;;31.34;26.12;100400.62;110830;1219;106948;-74
2021/09/09 10:38:25;;;;;;;;;;;;;;;;;;;;;
2021/09/09 10:42:26;;;;;;;11.40;7.30;;;;;;;30.29;27.51;100397.16;110570;1222;96408;-75
2021/09/09 10:45:48;;;;;;;8.60;6.90;;;;;;;30.17;27.83;100385.63;110354;1222;137360;-74
2021/09/09 10:49:42;;;;;;;;;;;;;;;;;;;;;
2021/09/09 10:58:17;;;;;;;8.90;6.60;;;;;;;29.08;27.85;100390.63;110507;1219;137752;-74
2021/09/09 11:06:06;;;;;;;7.70;6.20;;;;;;;28.37;28.74;100380.81;110152;1226;96679;-75
2021/09/09 11:13:24;;;;;;;9.10;6.20;;;;;;;28.11;29.93;100379.51;110029;1231;106153;-74
2021/09/09 11:21:09;;;;;;;9.20;6.40;;;;;;;27.94;30.07;100368.98;111246;1222;636306;-75
2021/09/09 11:25:07;;;;;;;;;;;;;;;;;;;;;
2021/09/09 11:29:27;;;;;;;10.00;7.30;;;;;;;27.90;30.64;100364.53;112073;1204;136623;-74
2021/09/09 11:33:16;;;;;;;10.50;7.10;;;;;;;27.71;30.18;100368.79;112222;1203;107062;-75
2021/09/09 11:40:55;;;;;;;;;;;;;;;;;;;;;
2021/09/09 11:45:08;;;;;;;11.10;7.80;;;;;;;27.44;31.54;100342.67;112149;1211;93982;-75
2021/09/09 11:49:17;;;;;;;12.50;7.70;;;;;;;27.41;31.06;100353.77;112133;1211;136678;-74
2021/09/09 11:53:09;;;;;;;;;;;;;;;;;;;;;
2021/09/09 11:56:26;;;;;;;11.20;7.60;;;;;;;27.25;32.41;100340.23;112187;1206;107196;-75
2021/09/09 12:00:32;;;;;;;11.20;8.00;;;;;;;27.17;32.60;100331.08;112026;1214;137011;-74
2021/09/09 12:04:41;;;;;;;11.70;7.40;;;;;;;27.18;32.27;100343.84;111903;1218;95111;-75
2021/09/09 12:08:38;;;;;;;;;;;;;;;;;;;;;
2021/09/09 12:12:41;;;;;;;;;;;;;;;;;;;;;
2021/09/09 12:15:52;;;;;;;8.20;6.30;;;;;;;27.25;31.78;100323.86;111928;1217;107262;-74
2021/09/09 12:19:22;;;;;;;7.30;6.50;;;;;;;27.30;31.23;100323.36;111951;1208;136773;-75
2021/09/09 12:23:16;;;;;;;;;;;;;;;;;;;;;
2021/09/09 12:26:51;;;;;;;;;;;;;;;;;;;;;
2021/09/09 12:30:46;;;;;;;10.20;6.70;;;;;;;26.97;31.87;100320.15;112018;1208;137161;-75
2021/09/09 12:34:19;;;;;;;11.30;6.60;;;;;;;26.88;31.79;100319.18;112189;1207;107414;-74
2021/09/09 12:37:46;;;;;;;11.10;7.30;;;;;;;26.79;31.66;100314.66;112139;1212;107461;-75
2021/09/09 12:42:02;;;;;;;8.70;7.10;;;;;;;26.83;31.90;100322.48;112167;1200;137541;-75
2021/09/09 12:46:01;;;;;;;9.10;7.40;;;;;;;26.84;32.14;100318.17;112327;1208;94845;-74
2021/09/09 12:49:55;;;;;;;;;;;;;;;;;;;;;
2021/09/09 12:53:37;;;;;;;7.90;6.80;;;;;;;27.02;31.78;100307.88;112216;1208;137031;-74
2021/09/09 12:57:14;;;;;;;9.40;6.70;;;;;;;27.06;31.66;100303.55;112257;1202;107623;-74
2021/09/09 13:00:52;;;;;;;11.20;6.30;;;;;;;26.91;30.79;100296.14;112141;1209;136823;-75
2021/09/09 13:04:40;;;;;;;8.20;5.80;;;;;;;26.98;31.29;100293.00;112144;1205;94840;-74
2021/09/09 13:08:30;;;;;;;7.20;6.00;;;;;;;27.10;30.80;100283.91;112196;1206;109477;-75
2021/09/09 13:11:28;;;;;;;;;;;;;;;27.19;30.92;100283.80;112030;1205;137510;-75
2021/09/09 13:15:37;;;;;;;19.90;8.00;;;;;;;27.13;31.24;100283.62;112287;1205;107643;-74
2021/09/09 13:19:54;;;;;;;;;;;;;;;;;;;;;
2021/09/09 13:23:25;;;;;;;8.60;5.90;;;;;;;26.68;31.07;100287.25;111974;1208;94369;-73
2021/09/09 13:26:57;;;;;;;7.30;6.10;;;;;;;26.40;31.09;100293.50;112175;1206;108471;-74
2021/09/09 13:30:37;;;;;;;8.60;6.60;;;;;;;26.28;31.60;100283.45;112019;1213;136975;-75
2021/09/09 13:34:08;;;;;;;10.40;6.80;;;;;;;26.31;31.82;100279.27;111991;1209;107504;-76
2021/09/09 13:37:35;;;;;;;10.50;6.40;;;;;;;26.21;31.95;100281.85;111915;1209;137175;-74
2021/09/09 13:41:14;;;;;;;;;;;;;;;;;;;;;
2021/09/09 13:45:13;;;;;;;8.40;6.60;;;;;;;26.08;32.58;100271.38;111942;1215;136964;-74
2021/09/09 13:48:24;;;;;;;11.30;7.20;;;;;;;26.05;32.75;100271.27;111842;1208;137016;-75
2021/09/09 13:55:52;;;;;;;8.70;6.70;;;;;;;25.97;33.12;100258.55;111896;1215;136890;-74
2021/09/09 13:59:36;;;;;;;;;;;;;;;;;;;;;
2021/09/09 14:03:37;;;;;;;7.40;6.60;;;;;;;25.82;33.21;100261.91;111887;1218;109537;-75
2021/09/09 14:07:17;;;;;;;11.90;7.20;;;;;;;25.74;33.37;100259.14;111751;1219;137673;-75
2021/09/09 14:11:30;;;;;;;;;;;;;;;;;;;;;
2021/09/09 14:19:24;;;;;;;;;;;;;;;;;;;;;
2021/09/09 14:22:50;;;;;;;;;;;;;;;;;;;;;
2021/09/09 14:26:54;;;;;;;9.70;7.20;;;;;;;25.21;34.68;100256.66;111064;1217;137375;-75
2021/09/09 14:30:01;;;;;;;;;;;;;;;;;;;;;
2021/09/09 14:33:09;;;;;;;8.20;7.00;;;;;;;24.98;34.65;100244.38;110950;1216;137265;-75
2021/09/09 14:36:39;;;;;;;9.30;7.60;;;;;;;24.92;34.78;100236.34;111284;1215;97979;-74
2021/09/09 14:40:21;;;;;;;8.00;7.20;;;;;;;24.86;34.99;100229.30;111446;1214;108388;-75
2021/09/09 14:43:50;;;;;;;;;;;;;;;24.80;35.32;100236.05;111585;1214;106460;-75
2021/09/09 14:46:50;;;;;;;11.00;6.90;;;;;;;24.70;35.50;100225.75;111716;1211;107677;-74
2021/09/09 14:50:49;;;;;;;;;;;;;;;;;;;;;
2021/09/09 14:54:49;;;;;;;;;;;;;;;;;;;;;
2021/09/09 14:58:22;;;;;;;10.00;7.80;;;;;;;24.62;36.31;100217.10;112190;1210;136835;-73
2021/09/09 15:01:19;;;;;;;9.70;7.60;;;;;;;24.56;36.62;100214.21;112294;1202;107604;-74
2021/09/09 15:04:25;;;;;;;9.00;6.80;;;;;;;24.54;36.95;100209.41;112163;1209;136846;-76
2021/09/09 15:08:04;;;;;;;11.00;7.90;;;;;;;24.55;37.30;100211.52;112256;1210;95007;-76
2021/09/09 15:11:54;;;;;;;8.70;7.20;;;;;;;24.50;37.41;100208.41;112250;1210;96063;-74
2021/09/09 15:15:16;;;;;;;12.20;8.10;;;;;;;24.44;37.61;100203.08;112162;1210;136994;-75
2021/09/09 15:18:44;;;;;;;9.40;7.50;;;;;;;24.36;37.47;100205.73;112078;1214;105026;-75
2021/09/09 15:22:06;;;;;;;9.10;7.30;;;;;;;24.29;37.05;100204.11;111883;1215;137047;-75
2021/09/09 15:25:59;;;;;;;9.90;7.40;;;;;;;24.22;36.95;100203.80;112062;1215;94856;-74
2021/09/09 15:29:06;;;;;;;12.70;7.10;;;;;;;24.16;36.99;100201.70;111952;1213;136667;-74
2021/09/09 15:32:40;;;;;;;10.00;7.60;;;;;;;24.08;37.23;100202.92;112189;1212;108530;-74
2021/09/09 15:36:31;;;;;;;10.50;7.00;;;;;;;24.00;37.29;100195.23;112183;1212;107664;-75
2021/09/09 15:39:59;;;;;;;10.30;7.30;;;;;;;23.95;37.44;100193.76;111834;1216;137629;-74
2021/09/09 15:43:07;;;;;;;;;;;;;;;;;;;;;
2021/09/09 15:47:27;;;;;;;8.30;7.30;;;;;;;23.87;37.74;100188.48;111909;1211;137219;-74
2021/09/09 15:50:50;;;;;;;9.40;7.90;;;;;;;23.83;37.99;100185.58;111810;1219;109540;-74
2021/09/09 15:55:08;;;;;;;11.80;7.10;;;;;;;23.77;37.95;100187.00;111835;1212;107395;-75
2021/09/09 15:58:42;;;;;;;;;;;;;;;;;;;;;
2021/09/09 16:05:39;;;;;;;11.00;7.90;;;;;;;23.60;38.39;100170.79;111209;1223;634715;-74
2021/09/09 16:09:21;;;;;;;12.00;7.40;;;;;;;23.54;38.54;100166.71;112309;1209;93947;-74
2021/09/09 16:12:37;;;;;;;9.60;7.30;;;;;;;23.48;38.71;100165.23;112126;1206;94006;-74
2021/09/09 16:16:19;;;;;;;;;;;;;;;;;;;;;
2021/09/09 16:20:23;;;;;;;11.00;7.50;;;;;;;23.33;38.86;100158.01;112069;1214;106287;-74
2021/09/09 16:23:58;;;;;;;12.30;7.20;;;;;;;23.26;39.22;100150.15;111970;1206;136882;-74
2021/09/09 16:27:50;;;;;;;11.20;7.20;;;;;;;23.19;39.37;100150.41;111997;1216;94043;-75
2021/09/09 16:31:15;;;;;;;;;;;;;;;;;;;;;
2021/09/09 16:35:06;;;;;;;12.80;7.80;;;;;;;23.05;40.02;100149.84;111822;1216;137124;-75
2021/09/09 16:38:34;;;;;;;;;;;;;;;22.97;40.41;100144.87;112038;1208;106745;-75
2021/09/09 16:42:06;;;;;;;13.40;8.30;;;;;;;22.85;40.63;100140.70;111844;1208;123260;-75
2021/09/09 16:45:48;;;;;;;17.50;7.50;;;;;;;22.76;40.87;100143.75;111968;1208;94909;-75
2021/09/09 16:49:40;;;;;;;17.60;8.20;;;;;;;22.66;41.09;100146.97;111762;1218;137321;-75
2021/09/09 16:53:30;;;;;;;12.70;7.10;;;;;;;22.55;41.40;100145.53;111839;1211;137585;-73
2021/09/09 16:57:21;;;;;;;;;;;;;;;;;;;;;
2021/09/09 17:00:47;;;;;;;;;;;;;;;;;;;;;
2021/09/09 17:04:33;;;;;;;;;;;;;;;;;;;;;
2021/09/09 17:08:23;;;;;;;;;;;;;;;;;;;;;
2021/09/09 17:12:33;;;;;;;15.70;8.20;;;;;;;22.03;42.75;100151.93;112123;1210;137139;-75
2021/09/09 17:15:59;;;;;;;;;;;;;;;;;;;;;
2021/09/09 17:20:02;;;;;;;15.20;8.60;;;;;;;21.82;43.42;100157.88;112146;1202;136959;-75
2021/09/09 17:23:48;;;;;;;;;;;;;;;;;;;;;
2021/09/09 17:28:23;;;;;;;14.40;8.30;;;;;;;21.61;43.85;100163.80;111765;1219;94944;-74
2021/09/09 17:32:01;;;;;;;15.10;7.80;;;;;;;21.53;44.26;100166.42;111312;1214;659402;-75
2021/09/09 17:36:05;;;;;;;13.10;8.20;;;;;;;21.41;44.52;100164.73;112155;1202;136976;-75
2021/09/09 17:40:32;;;;;;;11.80;8.00;;;;;;;21.32;44.65;100172.13;112250;1203;93977;-75
2021/09/09 17:43:54;;;;;;;11.80;8.80;;;;;;;21.23;44.84;100169.99;112155;1209;136734;-76
2021/09/09 17:47:05;;;;;;;16.40;8.60;;;;;;;21.15;45.14;100168.11;112302;1209;107392;-74
2021/09/09 17:50:55;;;;;;;12.20;8.00;;;;;;;21.07;45.37;100169.03;112269;1203;108500;-74
2021/09/09 17:55:03;;;;;;;15.00;8.20;;;;;;;20.99;45.48;100169.17;112022;1206;137229;-74
2021/09/09 17:58:58;;;;;;;;;;;;;;;;;;;;;
2021/09/09 18:02:57;;;;;;;13.20;8.80;;;;;;;20.81;45.68;100171.56;111991;1216;136488;-75
2021/09/09 18:06:50;;;;;;;12.00;8.80;;;;;;;20.73;46.04;100173.24;111934;1216;137222;-74
2021/09/09 18:14:46;;;;;;;12.70;8.80;;;;;;;20.59;46.71;100168.02;111909;1208;137022;-74
2021/09/09 18:18:57;;;;;;;12.30;8.30;;;;;;;20.50;46.91;100173.77;111837;1217;137147;-74
2021/09/09 18:27:01;;;;;;;;;;;;;;;;;;;;;
2021/09/09 18:34:49;;;;;;;;;;;;;;;;;;;;;
2021/09/09 18:37:55;;;;;;;16.70;8.60;;;;;;;20.17;48.02;100181.47;110758;1226;136917;-74
2021/09/09 18:42:27;;;;;;;15.20;9.10;;;;;;;20.11;48.19;100184.92;110817;1226;109386;-74
2021/09/09 18:46:25;;;;;;;16.30;9.00;;;;;;;20.02;48.68;100187.73;110234;1229;106229;-75
2021/09/09 18:53:33;;;;;;;14.00;9.10;;;;;;;19.85;49.43;100188.72;111339;1222;634439;-74
2021/09/09 18:57:42;;;;;;;13.00;9.60;;;;;;;19.71;50.00;100196.45;112146;1204;136782;-74
2021/09/09 19:05:58;;;;;;;16.90;9.50;;;;;;;19.45;50.67;100198.42;111993;1210;107126;-75
2021/09/09 19:14:54;;;;;;;13.90;9.70;;;;;;;19.23;51.32;100201.04;110809;1227;137215;-75
2021/09/09 19:19:09;;;;;;;15.80;10.40;;;;;;;19.13;51.65;100201.34;111461;1220;635962;-75
2021/09/09 19:23:15;;;;;;;;;;;;;;;;;;;;;
2021/09/09 19:27:14;;;;;;;;;;;;;;;;;;;;;
2021/09/09 19:31:24;;;;;;;17.10;11.30;;;;;;;18.78;52.36;100207.05;112329;1202;108096;-75
2021/09/09 19:35:25;;;;;;;;;;;;;;;;;;;;;
2021/09/09 19:44:19;;;;;;;15.70;10.60;;;;;;;18.47;53.30;100211.77;111555;1214;94063;-74
2021/09/09 19:48:19;;;;;;;13.50;10.80;;;;;;;18.38;53.44;100212.16;111497;1220;635541;-74
2021/09/09 19:52:19;;;;;;;16.00;11.40;;;;;;;18.25;53.91;100212.80;112104;1212;136956;-74
2021/09/09 19:56:06;;;;;;;;;;;;;;;;;;;;;
2021/09/09 19:59:47;;;;;;;;;;;;;;;;;;;;;
2021/09/09 20:03:48;;;;;;;18.90;12.10;;;;;;;18.04;54.83;100214.66;111617;1214;107362;-74
2021/09/09 20:11:48;;;;;;;16.70;12.20;;;;;;;17.87;55.81;100213.67;111332;1217;137220;-74
2021/09/09 20:15:47;;;;;;;;;;;;;;;;;;;;;
2021/09/09 20:19:36;;;;;;;18.70;11.80;;;;;;;17.72;56.10;100220.61;111028;1219;106929;-74
2021/09/09 20:23:25;;;;;;;17.60;12.60;;;;;;;17.68;56.25;100225.58;111530;1221;138294;-74
2021/09/09 20:27:15;;;;;;;21.20;13.20;;;;;;;17.65;56.49;100221.52;111547;1213;107857;-73
2021/09/09 20:31:24;;;;;;;19.30;12.80;;;;;;;17.60;56.96;100224.10;111173;1215;137257;-74
2021/09/09 20:52:17;;;;;;;18.20;12.70;;;;;;;17.36;57.59;100228.21;109612;1231;95025;-74
2021/09/09 20:55:38;;;;;;;13.90;10.90;;;;;;;17.32;57.68;100230.91;109556;1235;137617;-74
2021/09/09 20:59:32;;;;;;;17.60;12.50;;;;;;;17.29;57.85;100228.63;110033;1232;138838;-74
2021/09/09 21:08:08;;;;;;;18.00;13.60;;;;;;;17.26;58.05;100228.65;109940;1226;137448;-74
2021/09/09 21:20:01;;;;;;;18.30;12.80;;;;;;;17.09;58.54;100228.60;109779;1229;137612;-74
2021/09/09 21:36:30;;;;;;;20.90;13.90;;;;;;;16.92;59.24;100227.02;110078;1224;137811;-74
2021/09/09 21:40:35;;;;;;;14.70;12.40;;;;;;;16.89;59.09;100227.12;110126;1226;110266;-74
2021/09/09 21:44:41;;;;;;;20.40;13.70;;;;;;;16.87;59.44;100223.06;109914;1228;137155;-75
2021/09/09 21:52:24;;;;;;;16.50;11.50;;;;;;;16.80;59.53;100220.47;109745;1234;94883;-75
2021/09/09 22:04:00;;;;;;;;;;;;;;;;;;;;;
2021/09/09 22:08:01;;;;;;;;;;;;;;;;;;;;;
2021/09/09 22:16:21;;;;;;;;;;;;;;;;;;;;;
2021/09/09 22:25:19;;;;;;;16.20;12.60;;;;;;;16.54;60.05;100223.20;110927;1226;138113;-73
2021/09/09 22:32:59;;;;;;;;;;;;;;;;;;;;;
2021/09/09 22:41:09;;;;;;;20.70;15.40;;;;;;;16.35;60.58;100213.06;110081;1230;107990;-75
2021/09/09 22:45:14;;;;;;;26.80;20.70;;;;;;;16.30;60.58;100211.03;109964;1227;137313;-74
2021/09/09 22:53:25;;;;;;;20.40;14.40;;;;;;;16.18;60.90;100206.83;109721;1229;95018;-73
2021/09/09 23:01:36;;;;;;;20.10;15.20;;;;;;;16.06;61.30;100206.45;109326;1238;137699;-74
2021/09/09 23:05:35;;;;;;;16.60;13.40;;;;;;;16.00;61.36;100207.80;111448;1221;635577;-73
2021/09/09 23:09:22;;;;;;;19.50;14.40;;;;;;;15.94;61.54;100212.16;112372;1207;93848;-74
2021/09/09 23:13:10;;;;;;;;;;;;;;;;;;;;;